createdAt,value
2019-02-14T00:02:21.204Z,25.13
2019-02-14T00:04:48.344Z,16.47
2019-02-14T00:07:15.496Z,24.53
2019-02-14T00:09:44.182Z,12.73
2019-02-14T00:12:11.225Z,13.97
2019-02-14T00:14:38.273Z,14.17
2019-02-14T00:17:05.333Z,16.70
2019-02-14T00:19:32.354Z,14.27
2019-02-14T00:21:59.419Z,14.90
2019-02-14T00:24:26.473Z,13.13
2019-02-14T00:26:53.517Z,14.43
2019-02-14T00:29:20.566Z,14.13
2019-02-14T00:31:47.619Z,17.33
2019-02-14T00:34:14.629Z,17.23
2019-02-14T00:36:41.713Z,11.57
2019-02-14T00:39:08.862Z,16.87
2019-02-14T00:41:35.917Z,15.03
2019-02-14T00:44:02.962Z,16.27
2019-02-14T00:46:30.010Z,19.77
2019-02-14T00:48:57.059Z,21.77
2019-02-14T00:51:24.107Z,25.47
2019-02-14T00:53:51.154Z,20.90
2019-02-14T00:56:18.206Z,18.93
2019-02-14T00:58:45.249Z,18.47
2019-02-14T01:01:12.298Z,18.20
2019-02-14T01:03:39.450Z,14.13
2019-02-14T01:06:06.502Z,18.20
2019-02-14T01:08:33.559Z,21.07
2019-02-14T01:11:00.593Z,18.40
2019-02-14T01:13:27.649Z,18.13
2019-02-14T01:15:54.675Z,15.17
2019-02-14T01:18:21.740Z,18.90
2019-02-14T01:20:48.795Z,18.37
2019-02-14T01:23:16.929Z,17.87
2019-02-14T01:25:44.597Z,19.07
2019-02-14T01:28:11.675Z,19.07
2019-02-14T01:30:38.724Z,15.70
2019-02-14T01:33:05.781Z,15.17
2019-02-14T01:35:32.820Z,18.27
2019-02-14T01:38:00.554Z,20.57
2019-02-14T01:40:27.637Z,23.60
2019-02-14T01:42:54.691Z,21.23
2019-02-14T01:45:22.226Z,19.10
2019-02-14T01:47:49.299Z,17.37
2019-02-14T01:50:16.369Z,17.60
2019-02-14T01:52:43.508Z,22.43
2019-02-14T01:55:11.155Z,17.53
2019-02-14T01:57:38.210Z,17.00
2019-02-14T02:00:05.323Z,17.17
2019-02-14T02:02:32.818Z,20.17
2019-02-14T02:04:59.969Z,21.03
2019-02-14T02:07:27.001Z,16.17
2019-02-14T02:09:54.060Z,15.37
2019-02-14T02:12:21.114Z,23.17
2019-02-14T02:14:48.172Z,19.17
2019-02-14T02:17:15.208Z,17.10
2019-02-14T02:19:42.219Z,17.80
2019-02-14T02:22:09.305Z,18.67
2019-02-14T02:24:36.454Z,18.60
2019-02-14T02:27:03.512Z,16.80
2019-02-14T02:29:30.556Z,15.73
2019-02-14T02:31:57.575Z,15.73
2019-02-14T02:34:24.623Z,13.33
2019-02-14T02:36:51.711Z,18.23
2019-02-14T02:39:18.749Z,17.50
2019-02-14T02:41:45.787Z,16.13
2019-02-14T02:44:15.001Z,21.37
2019-02-14T02:46:42.046Z,20.00
2019-02-14T02:49:09.090Z,17.40
2019-02-14T02:51:36.150Z,18.13
2019-02-14T02:54:03.164Z,17.37
2019-02-14T02:56:30.235Z,19.43
2019-02-14T02:58:59.136Z,17.10
2019-02-14T03:01:26.456Z,16.93
2019-02-14T03:03:53.531Z,17.00
2019-02-14T03:06:20.686Z,16.43
2019-02-14T03:08:47.697Z,18.27
2019-02-14T03:11:14.782Z,15.67
2019-02-14T03:13:41.831Z,14.50
2019-02-14T03:16:08.883Z,16.43
2019-02-14T03:18:36.034Z,11.00
2019-02-14T03:21:03.076Z,15.13
2019-02-14T03:23:30.125Z,14.83
2019-02-14T03:25:57.183Z,18.60
2019-02-14T03:28:24.222Z,13.37
2019-02-14T03:30:51.398Z,13.03
2019-02-14T03:33:18.438Z,15.90
2019-02-14T03:35:45.573Z,13.43
2019-02-14T03:38:12.583Z,17.33
2019-02-14T03:40:40.283Z,15.60
2019-02-14T03:43:07.451Z,15.57
2019-02-14T03:45:34.448Z,23.93
2019-02-14T03:48:01.537Z,19.00
2019-02-14T03:50:28.688Z,17.73
2019-02-14T03:52:55.731Z,15.17
2019-02-14T03:55:22.781Z,21.30
2019-02-14T03:57:49.834Z,16.40
2019-02-14T04:00:16.876Z,16.17
2019-02-14T04:02:43.926Z,18.10
2019-02-14T04:05:10.981Z,15.30
2019-02-14T04:07:37.994Z,15.50
2019-02-14T04:10:05.071Z,17.73
2019-02-14T04:12:32.391Z,16.00
2019-02-14T04:14:59.476Z,15.40
2019-02-14T04:17:26.525Z,14.43
2019-02-14T04:19:53.579Z,11.90
2019-02-14T04:22:20.626Z,17.33
2019-02-14T04:24:47.637Z,13.57
2019-02-14T04:27:14.682Z,13.37
2019-02-14T04:29:41.767Z,24.83
2019-02-14T04:32:08.781Z,14.93
2019-02-14T04:34:35.880Z,13.63
2019-02-14T04:37:04.050Z,17.80
2019-02-14T04:39:31.104Z,16.43
2019-02-14T04:41:58.137Z,15.77
2019-02-14T04:44:25.185Z,14.90
2019-02-14T04:46:52.239Z,14.03
2019-02-14T04:49:19.282Z,11.90
2019-02-14T04:51:46.329Z,11.70
2019-02-14T04:54:13.481Z,11.60
2019-02-14T04:56:42.474Z,9.77
2019-02-14T04:59:09.528Z,13.37
2019-02-14T05:01:36.756Z,11.67
2019-02-14T05:04:04.542Z,13.83
2019-02-14T05:06:31.555Z,11.90
2019-02-14T05:08:58.537Z,12.20
2019-02-14T05:11:26.209Z,13.37
2019-02-14T05:13:53.248Z,12.90
2019-02-14T05:16:20.300Z,11.10
2019-02-14T05:18:47.661Z,12.63
2019-02-14T05:21:14.671Z,14.00
2019-02-14T05:23:41.750Z,13.07
2019-02-14T05:26:08.803Z,11.27
2019-02-14T05:28:36.770Z,11.60
2019-02-14T05:31:04.435Z,10.83
2019-02-14T05:33:31.589Z,15.10
2019-02-14T05:35:58.734Z,10.30
2019-02-14T05:38:26.604Z,8.70
2019-02-14T05:40:54.063Z,14.57
2019-02-14T05:43:21.212Z,10.43
2019-02-14T05:45:48.258Z,11.90
2019-02-14T05:48:15.237Z,9.60
2019-02-14T05:50:42.253Z,11.50
2019-02-14T05:53:09.266Z,11.27
2019-02-14T05:55:36.457Z,12.53
2019-02-14T05:58:03.608Z,10.07
2019-02-14T06:00:30.842Z,10.47
2019-02-14T06:02:59.830Z,14.27
2019-02-14T06:05:27.001Z,11.23
2019-02-14T06:07:54.056Z,11.53
2019-02-14T06:10:21.163Z,9.73
2019-02-14T06:12:48.250Z,9.87
2019-02-14T06:15:15.302Z,16.10
2019-02-14T06:17:43.572Z,22.30
2019-02-14T06:20:10.836Z,15.47
2019-02-14T06:22:37.984Z,49.90
2019-02-14T06:25:05.096Z,28.00
2019-02-14T06:27:32.184Z,25.13
2019-02-14T06:29:59.337Z,14.47
2019-02-14T06:32:26.377Z,7.80
2019-02-14T06:34:53.426Z,10.80
2019-02-14T06:37:20.577Z,405.60
2019-02-14T06:39:48.649Z,294.17
2019-02-14T06:42:18.874Z,118.67
2019-02-14T06:44:45.927Z,108.50
2019-02-14T06:47:13.077Z,82.77
2019-02-14T06:49:43.706Z,14.87
2019-02-14T06:52:10.859Z,25.27
2019-02-14T06:54:38.416Z,14.83
2019-02-14T06:57:05.464Z,12.27
2019-02-14T06:59:32.531Z,14.13
2019-02-14T07:02:00.175Z,14.57
2019-02-14T07:04:27.941Z,14.17
2019-02-14T07:06:54.991Z,11.77
2019-02-14T07:09:23.677Z,13.57
2019-02-14T07:11:50.698Z,13.53
2019-02-14T07:14:17.774Z,16.10
2019-02-14T07:16:45.849Z,11.70
2019-02-14T07:19:13.205Z,20.87
2019-02-14T07:21:40.358Z,17.10
2019-02-14T07:24:07.481Z,15.63
2019-02-14T07:26:36.093Z,18.57
2019-02-14T07:29:03.206Z,15.40
2019-02-14T07:31:30.293Z,19.57
2019-02-14T07:33:57.305Z,42.43
2019-02-14T07:36:24.354Z,16.90
2019-02-14T07:38:51.449Z,12.30
2019-02-14T07:41:18.589Z,22.63
2019-02-14T07:43:45.608Z,42.43
2019-02-14T07:46:12.685Z,22.27
2019-02-14T07:48:39.936Z,31.20
2019-02-14T07:51:07.086Z,9.23
2019-02-14T07:53:34.215Z,10.70
2019-02-14T07:56:01.387Z,9.60
2019-02-14T07:58:28.641Z,7.77
2019-02-14T08:00:55.898Z,13.10
2019-02-14T08:03:23.054Z,9.87
2019-02-14T08:05:50.097Z,10.20
2019-02-14T08:08:17.145Z,11.27
2019-02-14T08:10:44.194Z,7.97
2019-02-14T08:13:11.346Z,7.67
2019-02-14T08:15:38.500Z,9.60
2019-02-14T08:18:05.544Z,16.40
2019-02-14T08:20:32.696Z,11.20
2019-02-14T08:22:59.709Z,16.03
2019-02-14T08:25:28.034Z,9.40
2019-02-14T08:27:55.175Z,12.83
2019-02-14T08:30:22.338Z,8.37
2019-02-14T08:32:49.480Z,10.63
2019-02-14T08:35:16.630Z,8.77
2019-02-14T08:37:45.840Z,11.60
2019-02-14T08:40:11.851Z,11.13
2019-02-14T08:42:38.893Z,8.57
2019-02-14T08:45:06.120Z,6.00
2019-02-14T08:47:33.198Z,11.93
2019-02-14T08:50:00.457Z,10.77
2019-02-14T08:52:27.531Z,9.13
2019-02-14T08:54:56.387Z,18.90
2019-02-14T08:57:23.442Z,12.50
2019-02-14T08:59:50.454Z,33.97
2019-02-14T09:02:17.534Z,21.43
2019-02-14T09:04:45.202Z,13.67
2019-02-14T09:07:12.248Z,19.13
2019-02-14T09:09:39.461Z,23.07
2019-02-14T09:12:06.546Z,23.37
2019-02-14T09:14:33.697Z,10.00
2019-02-14T09:17:00.746Z,7.67
2019-02-14T09:19:27.815Z,17.00
2019-02-14T09:21:55.666Z,21.83
2019-02-14T09:24:22.720Z,29.07
2019-02-14T09:26:50.869Z,11.37
2019-02-14T09:29:18.039Z,12.67
2019-02-14T09:31:45.461Z,10.57
2019-02-14T09:34:12.754Z,8.47
2019-02-14T09:36:39.898Z,11.97
2019-02-14T09:39:07.310Z,35.37
2019-02-14T09:41:34.411Z,25.23
2019-02-14T09:44:01.466Z,11.63
2019-02-14T09:46:28.515Z,12.83
2019-02-14T09:48:55.782Z,13.80
2019-02-14T09:51:22.786Z,13.77
2019-02-14T09:53:49.858Z,32.17
2019-02-14T09:56:17.311Z,38.87
2019-02-14T09:58:44.467Z,38.77
2019-02-14T10:01:11.844Z,17.63
2019-02-14T10:03:38.997Z,11.37
2019-02-14T10:06:06.246Z,12.00
2019-02-14T10:08:33.373Z,13.30
2019-02-14T10:11:01.455Z,14.77
2019-02-14T10:13:28.508Z,14.20
2019-02-14T10:15:55.625Z,9.03
2019-02-14T10:18:24.397Z,4.67
2019-02-14T10:20:51.493Z,15.67
2019-02-14T10:23:18.533Z,13.97
2019-02-14T10:25:46.775Z,11.30
2019-02-14T10:28:14.281Z,17.30
2019-02-14T10:30:41.327Z,11.57
2019-02-14T10:33:08.578Z,14.40
2019-02-14T10:35:35.896Z,11.70
2019-02-14T10:38:02.980Z,13.83
2019-02-14T10:40:30.022Z,7.30
2019-02-14T10:42:58.098Z,11.43
2019-02-14T10:45:25.158Z,11.27
2019-02-14T10:47:52.174Z,7.43
2019-02-14T10:50:19.527Z,13.07
2019-02-14T10:52:46.703Z,10.53
2019-02-14T10:55:13.849Z,9.40
2019-02-14T10:57:40.903Z,12.80
2019-02-14T11:00:10.927Z,12.70
2019-02-14T11:02:38.057Z,1.70
2019-02-14T11:05:05.321Z,11.60
2019-02-14T11:07:32.643Z,11.03
2019-02-14T11:09:59.729Z,11.07
2019-02-14T11:12:26.791Z,12.07
2019-02-14T11:14:53.918Z,11.17
2019-02-14T11:17:20.958Z,11.73
2019-02-14T11:19:48.094Z,12.77
2019-02-14T11:22:15.279Z,11.57
2019-02-14T11:24:42.529Z,10.70
2019-02-14T11:27:10.481Z,13.37
2019-02-14T11:29:37.672Z,12.47
2019-02-14T11:32:04.813Z,13.97
2019-02-14T11:34:31.927Z,13.97
2019-02-14T11:36:59.008Z,12.00
2019-02-14T11:39:26.123Z,14.87
2019-02-14T11:41:53.340Z,12.57
2019-02-14T11:44:20.567Z,16.37
2019-02-14T11:46:51.587Z,12.83
2019-02-14T11:49:14.833Z,14.33
2019-02-14T11:51:42.109Z,14.17
2019-02-14T11:54:09.265Z,14.60
2019-02-14T11:56:36.309Z,13.73
2019-02-14T11:59:03.400Z,12.37
2019-02-14T12:01:30.618Z,11.07
2019-02-14T12:03:57.735Z,12.13
2019-02-14T12:06:24.936Z,14.30
2019-02-14T12:08:59.814Z,12.70
2019-02-14T12:11:19.316Z,14.70
2019-02-14T12:13:46.376Z,16.20
2019-02-14T12:16:14.047Z,14.57
2019-02-14T12:18:41.183Z,12.63
2019-02-14T12:21:08.299Z,15.20
2019-02-14T12:23:35.496Z,13.40
2019-02-14T12:26:02.641Z,16.60
2019-02-14T12:28:29.687Z,14.00
2019-02-14T12:30:56.731Z,18.20
2019-02-14T12:33:25.933Z,17.00
2019-02-14T12:35:53.095Z,16.13
2019-02-14T12:38:20.128Z,11.43
2019-02-14T12:40:47.855Z,16.00
2019-02-14T12:43:16.888Z,14.50
2019-02-14T12:45:43.957Z,16.07
2019-02-14T12:48:11.088Z,16.17
2019-02-14T12:50:38.211Z,15.80
2019-02-14T12:53:05.391Z,17.23
2019-02-14T12:55:32.641Z,16.80
2019-02-14T12:57:59.998Z,18.43
2019-02-14T13:00:27.055Z,20.27
2019-02-14T13:02:54.094Z,17.07
2019-02-14T13:05:21.967Z,17.97
2019-02-14T13:07:49.121Z,16.00
2019-02-14T13:10:18.138Z,15.43
2019-02-14T13:12:45.368Z,16.47
2019-02-14T13:15:12.615Z,15.97
2019-02-14T13:17:39.632Z,16.93
2019-02-14T13:20:06.842Z,17.90
2019-02-14T13:22:34.068Z,16.17
2019-02-14T13:25:01.125Z,19.63
2019-02-14T13:27:28.579Z,17.70
2019-02-14T13:29:55.627Z,17.73
2019-02-14T13:32:22.875Z,20.03
2019-02-14T13:34:50.000Z,17.30
2019-02-14T13:37:17.197Z,20.50
2019-02-14T13:39:44.331Z,18.93
2019-02-14T13:42:11.382Z,18.40
2019-02-14T13:44:38.549Z,16.47
2019-02-14T13:47:07.625Z,18.90
2019-02-14T13:49:35.296Z,19.57
2019-02-14T13:52:02.544Z,20.10
2019-02-14T13:54:30.829Z,22.10
2019-02-14T13:56:57.949Z,19.67
2019-02-14T13:59:25.108Z,18.63
2019-02-14T14:01:52.169Z,23.00
2019-02-14T14:04:20.044Z,19.33
2019-02-14T14:06:53.538Z,18.57
2019-02-14T14:09:20.754Z,20.33
2019-02-14T14:11:47.839Z,18.47
2019-02-14T14:14:15.010Z,20.97
2019-02-14T14:16:42.115Z,19.67
2019-02-14T14:19:09.293Z,20.17
2019-02-14T14:21:36.344Z,17.33
2019-02-14T14:24:04.350Z,19.83
2019-02-14T14:26:31.564Z,20.83
2019-02-14T14:28:58.688Z,20.50
2019-02-14T14:31:25.777Z,18.80
2019-02-14T14:33:53.445Z,22.47
2019-02-14T14:36:20.794Z,19.13
2019-02-14T14:38:47.934Z,21.33
2019-02-14T14:41:15.048Z,25.27
2019-02-14T14:43:42.345Z,19.23
2019-02-14T14:46:10.720Z,19.97
2019-02-14T14:48:37.976Z,18.73
2019-02-14T14:51:05.208Z,20.33
2019-02-14T14:53:32.326Z,23.30
2019-02-14T14:55:59.524Z,19.27
2019-02-14T14:58:26.580Z,19.93
2019-02-14T15:00:54.427Z,19.43
2019-02-14T15:03:21.497Z,24.47
2019-02-14T15:05:48.620Z,20.50
2019-02-14T15:08:15.802Z,19.10
2019-02-14T15:10:43.047Z,22.20
2019-02-14T15:13:10.100Z,20.30
2019-02-14T15:15:37.130Z,22.10
2019-02-14T15:18:04.191Z,20.97
2019-02-14T15:20:31.343Z,18.37
2019-02-14T15:22:58.398Z,20.27
2019-02-14T15:25:26.672Z,20.60
2019-02-14T15:27:53.834Z,21.00
2019-02-14T15:30:23.123Z,19.80
2019-02-14T15:32:50.181Z,18.10
2019-02-14T15:35:18.983Z,23.57
2019-02-14T15:37:47.123Z,20.83
2019-02-14T15:40:13.261Z,22.77
2019-02-14T15:42:41.233Z,22.93
2019-02-14T15:45:08.385Z,22.83
2019-02-14T15:47:35.708Z,22.23
2019-02-14T15:50:04.345Z,33.47
2019-02-14T15:52:32.176Z,30.10
2019-02-14T15:54:58.189Z,25.37
2019-02-14T15:57:25.146Z,22.50
2019-02-14T15:59:52.312Z,20.20
2019-02-14T16:02:19.681Z,28.13
2019-02-14T16:04:48.354Z,25.07
2019-02-14T16:07:17.546Z,23.53
2019-02-14T16:09:46.295Z,25.97
2019-02-14T16:12:14.624Z,31.03
2019-02-14T16:14:42.768Z,27.20
2019-02-14T16:17:13.116Z,28.87
2019-02-14T16:19:37.100Z,31.43
2019-02-14T16:22:04.253Z,31.13
2019-02-14T16:24:31.315Z,32.03
2019-02-14T16:26:59.164Z,30.13
2019-02-14T16:29:27.355Z,30.23
2019-02-14T16:31:52.857Z,31.97
2019-02-14T16:34:19.907Z,33.63
2019-02-14T16:36:48.901Z,30.17
2019-02-14T16:39:16.058Z,43.40
2019-02-14T16:41:43.208Z,31.33
2019-02-14T16:44:10.355Z,28.53
2019-02-14T16:46:37.541Z,31.53
2019-02-14T16:49:04.753Z,24.17
2019-02-14T16:51:31.991Z,22.27
2019-02-14T16:53:59.143Z,27.03
2019-02-14T16:56:26.170Z,29.33
2019-02-14T16:58:53.357Z,25.33
2019-02-14T17:01:20.426Z,22.57
2019-02-14T17:03:47.560Z,24.77
2019-02-14T17:06:14.569Z,30.20
2019-02-14T17:08:41.765Z,29.20
2019-02-14T17:11:12.087Z,28.93
2019-02-14T17:13:39.239Z,30.53
2019-02-14T17:16:06.281Z,31.03
2019-02-14T17:18:33.546Z,27.73
2019-02-14T17:21:02.629Z,33.60
2019-02-14T17:23:29.685Z,38.57
2019-02-14T17:25:56.851Z,30.53
2019-02-14T17:28:23.879Z,30.87
2019-02-14T17:30:50.933Z,34.83
2019-02-14T17:33:18.603Z,33.17
2019-02-14T17:35:45.640Z,37.13
2019-02-14T17:38:13.524Z,47.30
2019-02-14T17:40:46.042Z,81.87
2019-02-14T17:43:07.718Z,69.20
2019-02-14T17:45:34.911Z,47.57
2019-02-14T17:48:01.904Z,73.57
2019-02-14T17:50:28.952Z,49.73
2019-02-14T17:52:56.014Z,60.07
2019-02-14T17:55:24.454Z,51.33
2019-02-14T17:57:51.540Z,51.57
2019-02-14T18:00:18.574Z,49.10
2019-02-14T18:02:45.574Z,66.17
2019-02-14T18:05:13.089Z,82.37
2019-02-14T18:07:40.131Z,47.07
2019-02-14T18:10:07.234Z,51.73
2019-02-14T18:12:34.232Z,56.47
2019-02-14T18:15:01.491Z,56.03
2019-02-14T18:17:28.634Z,52.60
2019-02-14T18:19:55.658Z,57.37
2019-02-14T18:22:22.748Z,53.57
2019-02-14T18:24:49.879Z,64.53
2019-02-14T18:27:17.093Z,59.30
2019-02-14T18:29:44.209Z,66.93
2019-02-14T18:32:11.199Z,66.07
2019-02-14T18:34:38.381Z,66.47
2019-02-14T18:37:05.447Z,69.63
2019-02-14T18:39:32.430Z,73.23
2019-02-14T18:41:59.527Z,64.90
2019-02-14T18:44:26.580Z,78.27
2019-02-14T18:46:54.446Z,68.83
2019-02-14T18:49:22.532Z,76.40
2019-02-14T18:51:49.572Z,61.87
2019-02-14T18:54:16.615Z,63.23
2019-02-14T18:56:44.388Z,63.40
2019-02-14T18:59:11.425Z,60.80
2019-02-14T19:01:38.479Z,51.00
2019-02-14T19:04:05.476Z,48.30
2019-02-14T19:06:32.475Z,45.50
2019-02-14T19:08:59.518Z,44.00
2019-02-14T19:11:26.645Z,49.30
2019-02-14T19:13:53.723Z,36.57
2019-02-14T19:16:20.838Z,40.73
2019-02-14T19:18:48.051Z,40.90
2019-02-14T19:21:15.339Z,35.10
2019-02-14T19:23:42.373Z,45.83
2019-02-14T19:26:09.576Z,42.73
2019-02-14T19:28:36.733Z,43.23
2019-02-14T19:31:03.774Z,39.30
2019-02-14T19:33:30.830Z,41.73
2019-02-14T19:35:57.978Z,47.87
2019-02-14T19:38:24.982Z,47.40
2019-02-14T19:40:53.926Z,55.23
2019-02-14T19:43:20.967Z,60.60
2019-02-14T19:45:48.022Z,51.90
2019-02-14T19:48:17.836Z,61.37
2019-02-14T19:50:45.195Z,60.83
2019-02-14T19:53:14.216Z,51.30
2019-02-14T19:55:41.273Z,48.30
2019-02-14T19:58:08.345Z,40.87
2019-02-14T20:00:35.375Z,46.93
2019-02-14T20:03:02.480Z,47.60
2019-02-14T20:05:29.636Z,49.47
2019-02-14T20:07:56.672Z,58.10
2019-02-14T20:10:23.703Z,60.77
2019-02-14T20:12:50.727Z,52.40
2019-02-14T20:15:18.592Z,47.07
2019-02-14T20:17:45.711Z,52.87
2019-02-14T20:20:12.853Z,43.20
2019-02-14T20:22:40.015Z,44.70
2019-02-14T20:25:07.151Z,53.03
2019-02-14T20:27:34.188Z,52.40
2019-02-14T20:30:01.189Z,72.43
2019-02-14T20:32:28.304Z,43.33
2019-02-14T20:34:55.502Z,41.43
2019-02-14T20:37:22.589Z,35.33
2019-02-14T20:39:49.634Z,34.63
2019-02-14T20:42:16.987Z,31.53
2019-02-14T20:44:44.042Z,33.00
2019-02-14T20:47:13.153Z,31.00
2019-02-14T20:49:40.268Z,32.87
2019-02-14T20:52:07.361Z,28.37
2019-02-14T20:54:37.075Z,32.53
2019-02-14T20:57:04.685Z,32.77
2019-02-14T20:59:31.784Z,34.03
2019-02-14T21:02:01.804Z,32.67
2019-02-14T21:04:28.977Z,26.53
2019-02-14T21:06:56.243Z,32.53
2019-02-14T21:09:23.763Z,37.73
2019-02-14T21:11:54.717Z,28.87
2019-02-14T21:14:18.066Z,34.63
2019-02-14T21:16:45.118Z,32.53
2019-02-14T21:19:13.030Z,29.37
2019-02-14T21:21:40.541Z,31.80
2019-02-14T21:24:07.593Z,38.77
2019-02-14T21:26:35.165Z,30.10
2019-02-14T21:29:02.199Z,27.03
2019-02-14T21:31:29.257Z,27.67
2019-02-14T21:33:56.351Z,29.33
2019-02-14T21:36:23.454Z,29.33
2019-02-14T21:38:50.495Z,30.10
2019-02-14T21:41:17.652Z,27.00
2019-02-14T21:43:44.657Z,25.87
2019-02-14T21:46:13.030Z,36.30
2019-02-14T21:48:40.035Z,32.07
2019-02-14T21:51:07.186Z,32.30
2019-02-14T21:53:34.430Z,36.67
2019-02-14T21:56:01.733Z,37.97
2019-02-14T21:58:28.738Z,33.87
2019-02-14T22:00:56.372Z,32.63
2019-02-14T22:03:24.378Z,28.07
2019-02-14T22:05:51.440Z,28.40
2019-02-14T22:08:18.696Z,39.73
2019-02-14T22:10:45.750Z,41.93
2019-02-14T22:13:13.221Z,38.17
2019-02-14T22:15:40.354Z,37.27
2019-02-14T22:18:07.422Z,29.93
2019-02-14T22:20:34.449Z,32.67
2019-02-14T22:23:01.496Z,29.73
2019-02-14T22:25:28.548Z,22.17
2019-02-14T22:27:55.553Z,23.93
2019-02-14T22:30:22.641Z,28.03
2019-02-14T22:32:49.695Z,23.83
2019-02-14T22:35:16.737Z,33.60
2019-02-14T22:37:43.706Z,30.67
2019-02-14T22:40:10.733Z,34.80
2019-02-14T22:42:46.219Z,29.73
2019-02-14T22:45:05.854Z,27.90
2019-02-14T22:47:32.908Z,33.30
2019-02-14T22:50:00.059Z,31.07
2019-02-14T22:52:27.102Z,31.67
2019-02-14T22:54:54.053Z,28.53
2019-02-14T22:57:21.097Z,30.07
2019-02-14T22:59:48.100Z,37.67
2019-02-14T23:02:15.200Z,30.10
2019-02-14T23:04:42.208Z,33.50
2019-02-14T23:07:09.395Z,31.73
2019-02-14T23:09:36.749Z,25.83
2019-02-14T23:12:03.743Z,33.40
2019-02-14T23:14:30.743Z,28.40
2019-02-14T23:16:57.797Z,24.37
2019-02-14T23:19:24.841Z,25.30
2019-02-14T23:21:51.889Z,22.67
2019-02-14T23:24:18.943Z,29.40
2019-02-14T23:26:45.936Z,27.20
2019-02-14T23:29:14.184Z,34.03
2019-02-14T23:31:41.210Z,33.33
2019-02-14T23:34:08.257Z,32.47
2019-02-14T23:36:35.313Z,29.03
2019-02-14T23:39:02.403Z,24.90
2019-02-14T23:41:29.404Z,27.00
2019-02-14T23:43:56.459Z,27.67
2019-02-14T23:46:24.164Z,26.93
2019-02-14T23:48:51.163Z,23.57
2019-02-14T23:51:18.219Z,30.33
2019-02-14T23:53:45.260Z,24.07
2019-02-14T23:56:12.309Z,34.63
2019-02-14T23:58:39.305Z,28.90
